createdAt,value
2023-01-02T00:00:30.488Z,11.10
2023-01-02T00:05:33.372Z,8.65
2023-01-02T00:10:36.150Z,13.60
2023-01-02T00:15:40.317Z,16.15
2023-01-02T00:20:43.146Z,14.23
2023-01-02T00:25:45.943Z,14.05
2023-01-02T00:30:50.716Z,12.00
2023-01-02T00:35:53.559Z,9.15
2023-01-02T00:40:56.518Z,10.13
2023-01-02T00:46:04.835Z,9.57
2023-01-02T00:51:10.536Z,12.05
2023-01-02T00:56:13.811Z,8.73
2023-01-02T01:01:18.144Z,10.93
2023-01-02T01:06:21.431Z,13.15
2023-01-02T01:11:24.212Z,10.82
2023-01-02T01:16:28.441Z,10.48
2023-01-02T01:21:31.353Z,10.23
2023-01-02T01:26:34.693Z,11.13
2023-01-02T01:31:38.882Z,14.45
2023-01-02T01:36:41.728Z,10.85
2023-01-02T01:41:44.543Z,10.55
2023-01-02T01:46:48.915Z,10.88
2023-01-02T01:51:53.833Z,13.02
2023-01-02T01:57:00.773Z,8.57
2023-01-02T02:02:05.100Z,11.40
2023-01-02T02:07:08.471Z,6.40
2023-01-02T02:12:12.920Z,10.77
2023-01-02T02:17:24.450Z,7.05
2023-01-02T02:22:50.560Z,6.35
2023-01-02T02:28:25.625Z,9.40
2023-01-02T02:33:41.586Z,10.35
2023-01-02T02:38:58.497Z,6.93
2023-01-02T02:44:15.887Z,6.03
2023-01-02T02:49:33.607Z,14.93
2023-01-02T02:54:41.139Z,7.10
2023-01-02T02:59:44.454Z,10.80
2023-01-02T03:04:52.108Z,12.90
2023-01-02T03:10:07.706Z,11.82
2023-01-02T03:15:17.697Z,10.65
2023-01-02T03:20:26.061Z,10.63
2023-01-02T03:25:29.855Z,12.13
2023-01-02T03:30:38.251Z,9.25
2023-01-02T03:35:46.534Z,13.55
2023-01-02T03:40:53.847Z,10.93
2023-01-02T03:46:05.578Z,11.55
2023-01-02T03:51:10.395Z,11.68
2023-01-02T03:56:21.722Z,6.40
2023-01-02T04:01:35.656Z,7.90
2023-01-02T04:06:44.785Z,12.57
2023-01-02T04:11:53.435Z,9.88
2023-01-02T04:16:59.351Z,9.95
2023-01-02T04:22:08.384Z,10.95
2023-01-02T04:27:16.101Z,7.75
2023-01-02T04:32:23.734Z,10.82
2023-01-02T04:37:30.403Z,10.10
2023-01-02T04:42:33.199Z,5.70
2023-01-02T04:47:36.011Z,10.07
2023-01-02T04:52:40.156Z,8.23
2023-01-02T04:57:42.984Z,11.35
2023-01-02T05:02:45.861Z,8.55
2023-01-02T05:07:50.191Z,11.00
2023-01-02T05:12:52.982Z,15.18
2023-01-02T05:17:58.037Z,8.10
2023-01-02T05:23:19.578Z,12.52
2023-01-02T05:28:22.392Z,15.98
2023-01-02T05:33:25.246Z,10.30
2023-01-02T05:38:31.823Z,11.50
2023-01-02T05:43:36.341Z,9.85
2023-01-02T05:48:39.639Z,10.25
2023-01-02T05:53:44.007Z,17.45
2023-01-02T05:58:48.819Z,11.25
2023-01-02T06:03:53.472Z,9.00
2023-01-02T06:08:58.810Z,10.50
2023-01-02T06:14:01.941Z,9.02
2023-01-02T06:19:05.212Z,8.75
2023-01-02T06:24:09.567Z,14.30
2023-01-02T06:29:12.962Z,6.25
2023-01-02T06:34:17.834Z,13.10
2023-01-02T06:39:22.181Z,8.35
2023-01-02T06:44:24.955Z,7.45
2023-01-02T06:49:27.686Z,13.20
2023-01-02T06:59:34.335Z,3.08
2023-01-02T07:04:37.086Z,9.00
2023-01-02T07:09:41.232Z,8.80
2023-01-02T07:14:44.399Z,12.40
2023-01-02T07:19:53.248Z,6.47
2023-01-02T07:24:58.621Z,9.82
2023-01-02T07:30:01.484Z,7.85
2023-01-02T07:35:04.406Z,6.97
2023-01-02T07:40:10.034Z,11.02
2023-01-02T07:45:12.766Z,10.25
2023-01-02T07:55:19.608Z,10.63
2023-01-02T08:00:22.533Z,6.43
2023-01-02T08:05:25.269Z,3.97
2023-01-02T08:10:29.827Z,4.47
2023-01-02T08:15:32.981Z,12.65
2023-01-02T08:20:35.869Z,12.63
2023-01-02T08:25:39.961Z,5.55
2023-01-02T08:30:42.784Z,3.63
2023-01-02T08:35:45.500Z,10.70
2023-01-02T08:45:52.275Z,9.73
2023-01-02T08:50:55.138Z,8.73
2023-01-02T08:56:21.170Z,4.50
2023-01-02T09:01:25.465Z,9.20
2023-01-02T09:06:31.439Z,4.57
2023-01-02T09:11:40.075Z,6.78
2023-01-02T09:16:42.862Z,5.20
2023-01-02T09:21:45.755Z,13.27
2023-01-02T09:26:49.997Z,8.77
2023-01-02T09:31:52.928Z,5.90
2023-01-02T09:36:55.734Z,10.38
2023-01-02T09:42:04.420Z,6.88
2023-01-02T09:47:13.305Z,12.55
2023-01-02T09:52:21.601Z,13.27
2023-01-02T09:57:37.053Z,2.78
2023-01-02T10:03:08.247Z,8.02
2023-01-02T10:08:31.498Z,5.50
2023-01-02T10:14:17.421Z,8.52
2023-01-02T10:19:10.858Z,9.25
2023-01-02T10:24:18.362Z,4.40
2023-01-02T10:29:30.203Z,5.40
2023-01-02T10:34:40.581Z,3.63
2023-01-02T10:39:44.784Z,9.30
2023-01-02T10:44:49.120Z,5.25
2023-01-02T10:49:53.959Z,5.10
2023-01-02T10:55:00.321Z,2.60
2023-01-02T11:00:08.308Z,3.83
2023-01-02T11:05:20.563Z,1.70
2023-01-02T11:10:26.383Z,2.97
2023-01-02T11:15:34.506Z,1.55
2023-01-02T11:20:38.915Z,1.23
2023-01-02T11:25:43.690Z,2.45
2023-01-02T11:30:50.250Z,0.40
2023-01-02T11:35:55.637Z,0.60
2023-01-02T11:41:01.236Z,0.77
2023-01-02T11:46:10.176Z,0.50
2023-01-02T11:51:17.908Z,0.40
2023-01-02T11:56:25.828Z,0.47
2023-01-02T12:01:38.102Z,0.40
2023-01-02T12:06:55.277Z,0.70
2023-01-02T12:12:16.482Z,1.00
2023-01-02T12:17:25.892Z,1.83
2023-01-02T12:22:48.951Z,2.22
2023-01-02T12:27:59.046Z,3.83
2023-01-02T12:33:32.159Z,3.10
2023-01-02T12:38:57.885Z,3.67
2023-01-02T12:44:14.156Z,3.33
2023-01-02T12:49:36.332Z,3.72
2023-01-02T12:54:56.857Z,2.88
2023-01-02T13:00:22.722Z,2.20
2023-01-02T13:05:31.000Z,2.15
2023-01-02T13:10:34.743Z,2.63
2023-01-02T13:15:41.504Z,2.47
2023-01-02T13:20:54.257Z,2.55
2023-01-02T13:31:35.818Z,3.15
2023-01-02T13:36:39.351Z,1.58
2023-01-02T13:42:08.958Z,1.98
2023-01-02T13:47:25.553Z,2.67
2023-01-02T13:52:31.664Z,3.28
2023-01-02T13:57:34.611Z,2.30
2023-01-02T14:02:37.524Z,1.90
2023-01-02T14:07:49.267Z,1.63
2023-01-02T14:12:55.971Z,1.17
2023-01-02T14:18:04.963Z,2.17
2023-01-02T14:23:11.402Z,1.80
2023-01-02T14:28:22.620Z,1.80
2023-01-02T14:33:32.273Z,1.67
2023-01-02T14:38:41.359Z,2.15
2023-01-02T14:43:45.836Z,4.60
2023-01-02T14:48:55.947Z,2.47
2023-01-02T14:54:03.003Z,1.95
2023-01-02T14:59:08.258Z,2.80
2023-01-02T15:04:20.301Z,3.67
2023-01-02T15:09:30.659Z,3.65
2023-01-02T15:14:33.442Z,2.80
2023-01-02T15:19:42.224Z,5.68
2023-01-02T15:24:51.189Z,3.30
2023-01-02T15:29:56.935Z,4.43
2023-01-02T15:35:13.752Z,2.67
2023-01-02T15:40:21.330Z,3.90
2023-01-02T15:45:24.257Z,4.25
2023-01-02T15:50:29.305Z,2.30
2023-01-02T15:55:37.374Z,3.72
2023-01-02T16:00:40.634Z,3.92
2023-01-02T16:05:49.803Z,4.57
2023-01-02T16:11:01.334Z,3.25
2023-01-02T16:16:15.808Z,2.93
2023-01-02T16:21:19.986Z,3.40
2023-01-02T16:26:32.923Z,3.50
2023-01-02T16:31:52.361Z,2.60
2023-01-02T16:37:29.731Z,19.83
2023-01-02T16:42:37.627Z,7.78
2023-01-02T16:47:43.986Z,6.65
2023-01-02T16:52:47.421Z,4.07
2023-01-02T16:57:52.465Z,4.82
2023-01-02T17:02:55.365Z,6.22
2023-01-02T17:07:58.231Z,6.63
2023-01-02T17:13:02.521Z,7.55
2023-01-02T17:18:05.547Z,7.13
2023-01-02T17:23:09.049Z,6.13
2023-01-02T17:28:13.550Z,6.72
2023-01-02T17:33:16.834Z,8.75
2023-01-02T17:38:19.671Z,5.93
2023-01-02T17:43:24.111Z,6.65
2023-01-02T17:48:26.943Z,9.75
2023-01-02T17:53:29.777Z,11.43
2023-01-02T17:58:33.927Z,12.20
2023-01-02T18:03:38.082Z,15.43
2023-01-02T18:08:40.878Z,15.13
2023-01-02T18:13:47.810Z,16.52
2023-01-02T18:18:53.204Z,19.17
2023-01-02T18:23:59.529Z,17.15
2023-01-02T18:29:09.792Z,17.05
2023-01-02T18:34:46.343Z,19.70
2023-01-02T18:39:43.720Z,19.15
2023-01-02T18:44:48.355Z,25.92
2023-01-02T18:49:51.239Z,26.30
2023-01-02T18:54:59.804Z,25.55
2023-01-02T19:00:20.630Z,28.85
2023-01-02T19:05:27.067Z,22.88
2023-01-02T19:10:37.016Z,18.85
2023-01-02T19:15:44.235Z,21.00
2023-01-02T19:20:50.247Z,20.67
2023-01-02T19:25:53.827Z,19.90
2023-01-02T19:30:58.392Z,19.80
2023-01-02T19:36:03.636Z,13.18
2023-01-02T19:41:06.561Z,12.60
2023-01-02T19:46:10.739Z,21.92
2023-01-02T19:51:13.628Z,20.75
2023-01-02T19:56:16.484Z,18.30
2023-01-02T20:01:22.237Z,23.58
2023-01-02T20:06:25.494Z,22.98
2023-01-02T20:11:46.112Z,18.23
2023-01-02T20:16:50.333Z,19.15
2023-01-02T20:21:54.192Z,18.85
2023-01-02T20:26:58.298Z,18.02
2023-01-02T20:32:02.624Z,17.92
2023-01-02T20:37:05.783Z,16.17
2023-01-02T20:42:13.439Z,15.13
2023-01-02T20:47:18.718Z,15.25
2023-01-02T20:52:21.906Z,16.58
2023-01-02T20:57:24.731Z,19.38
2023-01-02T21:02:29.002Z,18.10
2023-01-02T21:07:31.909Z,23.02
2023-01-02T21:12:52.087Z,21.10
2023-01-02T21:17:56.502Z,23.67
2023-01-02T21:22:59.322Z,24.05
2023-01-02T21:28:02.472Z,24.55
2023-01-02T21:33:06.800Z,20.05
2023-01-02T21:38:10.713Z,32.33
2023-01-02T21:43:13.986Z,26.90
2023-01-02T21:48:18.105Z,26.23
2023-01-02T21:53:20.914Z,28.45
2023-01-02T21:58:23.719Z,27.05
2023-01-02T22:03:27.941Z,26.75
2023-01-02T22:08:30.976Z,19.20
2023-01-02T22:13:33.783Z,28.92
2023-01-02T22:18:38.400Z,24.02
2023-01-02T22:23:41.443Z,21.13
2023-01-02T22:28:44.643Z,24.30
2023-01-02T22:33:48.782Z,24.50
2023-01-02T22:39:25.849Z,22.80
2023-01-02T22:44:17.281Z,25.40
2023-01-02T22:49:25.393Z,22.20
2023-01-02T22:54:28.239Z,21.83
2023-01-02T22:59:31.021Z,20.60
2023-01-02T23:04:35.173Z,20.02
2023-01-02T23:09:37.908Z,23.40
2023-01-02T23:14:40.713Z,24.88
2023-01-02T23:19:44.878Z,24.95
2023-01-02T23:24:47.736Z,24.58
2023-01-02T23:29:50.546Z,22.70
2023-01-02T23:34:55.769Z,21.83
2023-01-02T23:39:58.621Z,22.15
2023-01-02T23:45:01.502Z,17.42
2023-01-02T23:50:06.606Z,18.50
2023-01-02T23:55:10.292Z,17.73
